Terminal Aerodrome Forecast
Issued by NWS

Home | Current Version | Previous Version | Text Only | Print | Product List | Glossary On
Versions: 1 2 3 4 5 6 7 8 9 10 11 12 13 14 15 16 17 18 19 20 21 22 23 24 25 26 27 28
000
FTUS43 KDVN 241000 AAB
TAFCID
TAF AMD
KCID 241040Z 2411/2506 11012G18KT 6SM BR OVC009
     FM241300 10014G20KT 6SM BR OVC007
     FM241900 11012G24KT 6SM -RA BR SCT010 OVC035
     FM250000 07012G20KT 3SM RA BR OVC015=

USA.gov is the U.S. government's official web portal to all federal, state and local government web resources and services.